createdAt,value
2023-02-28T00:03:23.869Z,3.80
2023-02-28T00:08:29.402Z,3.80
2023-02-28T00:13:33.911Z,3.70
2023-02-28T00:18:38.602Z,3.70
2023-02-28T00:23:44.726Z,3.70
2023-02-28T00:28:49.429Z,3.60
2023-02-28T00:33:53.714Z,3.60
2023-02-28T00:38:59.994Z,3.50
2023-02-28T00:44:05.912Z,3.50
2023-02-28T00:49:09.977Z,3.50
2023-02-28T00:54:15.447Z,3.50
2023-02-28T00:59:20.484Z,3.40
2023-02-28T01:04:24.792Z,3.40
2023-02-28T01:09:30.431Z,3.40
2023-02-28T01:14:37.232Z,3.30
2023-02-28T01:19:41.414Z,3.30
2023-02-28T01:24:48.968Z,3.20
2023-02-28T01:29:53.671Z,3.20
2023-02-28T01:34:57.791Z,3.20
2023-02-28T01:40:03.239Z,3.10
2023-02-28T01:45:24.794Z,3.10
2023-02-28T01:50:34.080Z,3.10
2023-02-28T01:55:40.412Z,3.10
2023-02-28T02:00:44.676Z,3.20
2023-02-28T02:05:49.167Z,3.20
2023-02-28T02:10:58.566Z,3.20
2023-02-28T02:16:12.826Z,3.30
2023-02-28T02:22:09.219Z,3.30
2023-02-28T02:27:50.595Z,3.30
2023-02-28T02:33:21.817Z,3.40
2023-02-28T02:38:36.049Z,3.50
2023-02-28T02:43:50.265Z,3.50
2023-02-28T02:48:57.957Z,3.50
2023-02-28T02:54:10.238Z,3.50
2023-02-28T02:59:25.237Z,3.60
2023-02-28T03:04:37.393Z,3.60
2023-02-28T03:09:42.956Z,3.60
2023-02-28T03:15:06.025Z,3.60
2023-02-28T03:20:20.445Z,3.60
2023-02-28T03:25:34.844Z,3.60
2023-02-28T03:30:46.938Z,3.70
2023-02-28T03:36:08.404Z,3.70
2023-02-28T03:41:19.180Z,3.70
2023-02-28T03:46:27.579Z,3.70
2023-02-28T03:51:33.327Z,3.70
2023-02-28T03:56:44.765Z,3.70
2023-02-28T04:01:51.179Z,3.70
2023-02-28T04:07:03.658Z,3.70
2023-02-28T04:12:10.755Z,3.70
2023-02-28T04:17:14.916Z,3.70
2023-02-28T04:22:23.219Z,3.70
2023-02-28T04:27:28.790Z,3.80
2023-02-28T04:32:33.807Z,3.80
2023-02-28T04:37:38.032Z,3.70
2023-02-28T04:42:43.417Z,3.80
2023-02-28T04:47:47.723Z,3.80
2023-02-28T04:52:52.255Z,3.80
2023-02-28T04:57:57.724Z,3.80
2023-02-28T05:03:01.925Z,3.80
2023-02-28T05:08:06.538Z,3.80
2023-02-28T05:13:14.597Z,3.80
2023-02-28T05:18:18.563Z,3.80
2023-02-28T05:23:24.585Z,3.80
2023-02-28T05:28:29.925Z,3.80
2023-02-28T05:33:33.993Z,3.80
2023-02-28T05:38:39.031Z,3.80
2023-02-28T05:43:44.668Z,3.80
2023-02-28T05:48:50.317Z,3.80
2023-02-28T05:53:54.582Z,3.80
2023-02-28T05:59:00.000Z,3.80
2023-02-28T06:04:06.272Z,3.80
2023-02-28T06:09:10.258Z,3.80
2023-02-28T06:14:18.771Z,3.80
2023-02-28T06:19:23.372Z,3.70
2023-02-28T06:24:29.853Z,3.70
2023-02-28T06:29:36.750Z,3.70
2023-02-28T06:34:40.789Z,3.80
2023-02-28T06:39:45.101Z,3.80
2023-02-28T06:44:50.492Z,3.80
2023-02-28T06:49:54.813Z,3.80
2023-02-28T06:55:02.097Z,3.70
2023-02-28T07:00:10.986Z,3.80
2023-02-28T07:05:15.544Z,3.80
2023-02-28T07:10:20.518Z,3.80
2023-02-28T07:15:26.025Z,3.90
2023-02-28T07:20:30.069Z,3.90
2023-02-28T07:25:34.207Z,3.90
2023-02-28T07:30:39.716Z,3.90
2023-02-28T07:35:44.046Z,4.00
2023-02-28T07:40:48.113Z,4.10
2023-02-28T07:45:53.481Z,4.10
2023-02-28T07:50:58.014Z,4.20
2023-02-28T07:56:04.572Z,4.30
2023-02-28T08:01:11.896Z,4.40
2023-02-28T08:06:20.149Z,4.50
2023-02-28T08:11:24.509Z,4.60
2023-02-28T08:16:29.854Z,4.70
2023-02-28T08:21:34.128Z,4.80
2023-02-28T08:26:38.119Z,4.90
2023-02-28T08:31:44.112Z,4.90
2023-02-28T08:36:48.196Z,5.00
2023-02-28T08:42:02.108Z,5.20
2023-02-28T08:47:11.186Z,5.30
2023-02-28T08:52:15.179Z,5.50
2023-02-28T08:57:19.214Z,5.60
2023-02-28T09:02:24.581Z,6.00
2023-02-28T09:07:28.621Z,7.00
2023-02-28T09:12:36.710Z,8.20
2023-02-28T09:17:42.833Z,10.00
2023-02-28T09:22:47.552Z,11.80
2023-02-28T09:27:51.551Z,13.60
2023-02-28T09:32:57.170Z,15.00
2023-02-28T09:38:04.080Z,16.30
2023-02-28T09:43:12.577Z,17.50
2023-02-28T09:48:24.068Z,17.80
2023-02-28T09:53:34.932Z,18.30
2023-02-28T09:58:47.160Z,18.80
2023-02-28T10:03:59.602Z,19.50
2023-02-28T10:09:15.197Z,19.60
2023-02-28T10:38:43.558Z,20.30
2023-02-28T10:43:48.071Z,20.90
2023-02-28T10:49:04.500Z,21.10
2023-02-28T10:54:18.668Z,21.30
2023-02-28T10:59:31.279Z,21.60
2023-02-28T11:04:40.500Z,21.40
2023-02-28T11:09:50.414Z,21.70
2023-02-28T11:14:57.681Z,21.40
2023-02-28T11:20:08.209Z,21.00
2023-02-28T11:25:24.722Z,21.00
2023-02-28T11:30:37.256Z,21.20
2023-02-28T11:35:41.969Z,20.80
2023-02-28T11:41:06.487Z,20.90
2023-02-28T11:46:28.397Z,20.70
2023-02-28T11:51:38.574Z,20.10
2023-02-28T11:56:49.723Z,20.20
2023-02-28T12:02:26.013Z,20.40
2023-02-28T12:07:36.294Z,20.80
2023-02-28T12:12:52.974Z,21.40
2023-02-28T12:18:27.571Z,21.80
2023-02-28T12:23:58.844Z,21.80
2023-02-28T12:29:15.201Z,21.90
2023-02-28T12:34:25.130Z,22.20
2023-02-28T12:39:41.731Z,22.50
2023-02-28T12:45:00.246Z,21.90
2023-02-28T12:50:12.850Z,21.90
2023-02-28T12:55:26.408Z,22.00
2023-02-28T13:00:38.575Z,21.70
2023-02-28T13:06:28.760Z,21.00
2023-02-28T13:11:40.971Z,20.60
2023-02-28T13:17:02.200Z,20.30
2023-02-28T13:22:07.355Z,19.80
2023-02-28T13:27:41.647Z,19.30
2023-02-28T13:32:49.432Z,18.80
2023-02-28T13:38:37.581Z,18.10
2023-02-28T13:44:06.061Z,17.40
2023-02-28T13:49:29.131Z,16.80
2023-02-28T13:54:52.477Z,16.40
2023-02-28T14:00:22.517Z,15.80
2023-02-28T14:05:30.933Z,15.50
2023-02-28T14:10:41.542Z,15.10
2023-02-28T14:16:00.528Z,14.70
2023-02-28T14:21:16.911Z,14.40
2023-02-28T14:27:00.128Z,14.10
2023-02-28T14:32:17.539Z,13.80
2023-02-28T14:37:31.144Z,13.60
2023-02-28T14:42:42.711Z,13.20
2023-02-28T14:47:46.937Z,13.00
2023-02-28T14:52:56.047Z,12.80
2023-02-28T14:58:03.895Z,12.60
2023-02-28T15:03:22.870Z,12.20
2023-02-28T15:08:30.485Z,11.80
2023-02-28T15:13:42.433Z,11.50
2023-02-28T15:18:51.742Z,11.20
2023-02-28T15:24:02.925Z,11.00
2023-02-28T15:29:09.369Z,10.90
2023-02-28T15:34:23.289Z,10.80
2023-02-28T15:39:31.297Z,10.80
2023-02-28T15:44:38.114Z,10.80
2023-02-28T15:49:51.090Z,10.70
2023-02-28T15:54:56.714Z,10.60
2023-02-28T16:00:06.705Z,10.60
2023-02-28T16:05:29.159Z,10.50
2023-02-28T16:10:34.621Z,10.40
2023-02-28T16:15:44.412Z,10.30
2023-02-28T16:20:48.550Z,10.20
2023-02-28T16:25:54.464Z,10.00
2023-02-28T16:30:58.657Z,10.00
2023-02-28T16:36:04.064Z,9.80
2023-02-28T16:41:17.593Z,9.80
2023-02-28T16:46:22.880Z,9.60
2023-02-28T16:51:27.119Z,9.50
2023-02-28T16:56:32.902Z,9.30
2023-02-28T17:01:37.113Z,9.20
2023-02-28T17:06:41.386Z,9.00
2023-02-28T17:11:47.275Z,8.90
2023-02-28T17:16:51.528Z,8.70
2023-02-28T17:21:55.737Z,8.60
2023-02-28T17:27:02.381Z,8.50
2023-02-28T17:32:17.237Z,8.40
2023-02-28T17:37:21.796Z,8.30
2023-02-28T17:42:27.321Z,8.20
2023-02-28T17:47:31.345Z,8.10
2023-02-28T17:52:37.759Z,8.00
2023-02-28T17:57:43.817Z,7.90
2023-02-28T18:02:47.916Z,7.80
2023-02-28T18:07:52.106Z,7.80
2023-02-28T18:12:57.656Z,7.70
2023-02-28T18:18:03.342Z,7.60
2023-02-28T18:23:07.489Z,7.50
2023-02-28T18:28:12.873Z,7.40
2023-02-28T18:33:17.018Z,7.30
2023-02-28T18:38:22.615Z,7.30
2023-02-28T18:43:28.296Z,7.20
2023-02-28T18:48:32.308Z,7.10
2023-02-28T18:53:37.162Z,7.00
2023-02-28T18:58:43.056Z,7.00
2023-02-28T19:03:47.440Z,6.90
2023-02-28T19:08:55.503Z,6.80
2023-02-28T19:14:01.307Z,6.80
2023-02-28T19:19:05.694Z,6.70
2023-02-28T19:24:09.837Z,6.60
2023-02-28T19:29:15.639Z,6.60
2023-02-28T19:34:19.749Z,6.50
2023-02-28T19:39:24.053Z,6.50
2023-02-28T19:44:34.127Z,6.40
2023-02-28T19:49:39.028Z,6.30
2023-02-28T19:54:43.853Z,6.30
2023-02-28T19:59:51.134Z,6.20
2023-02-28T20:04:59.943Z,6.20
2023-02-28T20:10:06.198Z,6.10
2023-02-28T20:15:12.871Z,6.10
2023-02-28T20:20:17.761Z,6.00
2023-02-28T20:25:22.820Z,6.00
2023-02-28T20:30:28.962Z,5.90
2023-02-28T20:35:33.855Z,5.80
2023-02-28T20:40:39.447Z,5.80
2023-02-28T20:45:54.279Z,5.70
2023-02-28T20:51:00.143Z,5.60
2023-02-28T20:56:07.128Z,5.60
2023-02-28T21:01:16.891Z,5.50
2023-02-28T21:06:24.120Z,5.50
2023-02-28T21:11:32.063Z,5.40
2023-02-28T21:16:38.226Z,5.40
2023-02-28T21:21:44.918Z,5.30
2023-02-28T21:26:49.512Z,5.30
2023-02-28T21:31:57.796Z,5.20
2023-02-28T21:37:02.488Z,5.10
2023-02-28T21:42:06.662Z,5.10
2023-02-28T21:47:12.297Z,5.10
2023-02-28T21:52:16.505Z,5.00
2023-02-28T21:57:20.801Z,5.00
2023-02-28T22:02:28.460Z,4.90
2023-02-28T22:07:34.073Z,4.90
2023-02-28T22:12:38.103Z,4.80
2023-02-28T22:17:44.084Z,4.80
2023-02-28T22:22:48.356Z,4.80
2023-02-28T22:27:52.465Z,4.70
2023-02-28T22:32:57.982Z,4.70
2023-02-28T22:38:02.115Z,4.70
2023-02-28T22:43:06.670Z,4.60
2023-02-28T22:48:12.148Z,4.60
2023-02-28T22:53:16.166Z,4.50
2023-02-28T22:58:20.330Z,4.50
2023-02-28T23:03:27.010Z,4.50
2023-02-28T23:08:31.133Z,4.40
2023-02-28T23:13:35.214Z,4.40
2023-02-28T23:18:40.706Z,4.30
2023-02-28T23:23:44.753Z,4.30
2023-02-28T23:28:49.227Z,4.30
2023-02-28T23:33:54.744Z,4.20
2023-02-28T23:38:58.984Z,4.20
2023-02-28T23:44:04.165Z,4.10
2023-02-28T23:49:09.555Z,4.10
2023-02-28T23:54:13.954Z,4.00
2023-02-28T23:59:18.064Z,4.00
